createdAt,value
2023-11-11T00:01:30.935Z,0.70
2023-11-11T00:03:57.701Z,0.68
2023-11-11T00:06:24.487Z,0.60
2023-11-11T00:08:51.260Z,0.65
2023-11-11T00:11:18.075Z,0.50
2023-11-11T00:13:45.354Z,0.40
2023-11-11T00:16:14.917Z,0.55
2023-11-11T00:18:41.684Z,0.30
2023-11-11T00:21:08.819Z,0.40
2023-11-11T00:23:38.620Z,0.43
2023-11-11T00:26:08.986Z,0.52
2023-11-11T00:28:41.416Z,0.38
2023-11-11T00:31:12.912Z,0.50
2023-11-11T00:33:43.329Z,0.30
2023-11-11T00:36:11.039Z,0.20
2023-11-11T00:38:40.198Z,0.20
2023-11-11T00:41:06.982Z,0.10
2023-11-11T00:43:34.202Z,0.22
2023-11-11T00:46:01.006Z,0.00
2023-11-11T00:48:27.732Z,0.10
2023-11-11T00:50:54.510Z,0.20
2023-11-11T00:53:21.142Z,0.20
2023-11-11T00:55:47.897Z,0.10
2023-11-11T00:58:17.025Z,0.10
2023-11-11T01:00:44.850Z,0.20
2023-11-11T01:03:13.008Z,0.20
2023-11-11T01:05:43.902Z,0.20
2023-11-11T01:08:10.973Z,0.17
2023-11-11T01:10:39.130Z,0.45
2023-11-11T01:13:10.419Z,0.10
2023-11-11T01:15:37.281Z,0.20
2023-11-11T01:18:06.689Z,0.10
2023-11-11T01:20:33.475Z,0.20
2023-11-11T01:23:00.228Z,0.25
2023-11-11T01:25:31.518Z,0.20
2023-11-11T01:27:58.572Z,0.20
2023-11-11T01:30:27.668Z,0.28
2023-11-11T01:32:54.421Z,0.20
2023-11-11T01:35:21.681Z,0.57
2023-11-11T01:37:48.590Z,0.20
2023-11-11T01:40:19.828Z,0.20
2023-11-11T01:42:47.049Z,0.25
2023-11-11T01:45:16.236Z,0.10
2023-11-11T01:47:44.323Z,0.10
2023-11-11T01:50:12.118Z,0.20
2023-11-11T01:52:39.896Z,0.10
2023-11-11T01:55:08.879Z,0.10
2023-11-11T01:57:35.959Z,0.00
2023-11-11T02:00:11.828Z,0.10
2023-11-11T02:02:38.638Z,0.10
2023-11-11T02:05:06.908Z,0.20
2023-11-11T02:07:34.323Z,0.20
2023-11-11T02:10:03.813Z,0.20
2023-11-11T02:12:32.235Z,0.32
2023-11-11T02:15:02.196Z,0.20
2023-11-11T02:17:30.199Z,0.30
2023-11-11T02:19:57.042Z,0.20
2023-11-11T02:22:23.687Z,0.20
2023-11-11T02:24:53.162Z,0.30
2023-11-11T02:27:19.858Z,0.60
2023-11-11T02:29:46.888Z,0.60
2023-11-11T02:32:14.017Z,0.40
2023-11-11T02:34:41.017Z,0.47
2023-11-11T02:37:10.012Z,0.60
2023-11-11T02:39:36.863Z,0.40
2023-11-11T02:42:03.843Z,0.70
2023-11-11T02:44:30.545Z,0.70
2023-11-11T02:46:57.420Z,0.60
2023-11-11T02:49:24.979Z,0.80
2023-11-11T02:51:51.661Z,0.60
2023-11-11T02:54:20.813Z,0.60
2023-11-11T02:56:47.652Z,0.68
2023-11-11T02:59:14.712Z,0.50
2023-11-11T03:01:42.724Z,0.40
2023-11-11T03:04:13.239Z,0.80
2023-11-11T03:06:43.250Z,0.70
2023-11-11T03:09:13.093Z,0.50
2023-11-11T03:11:40.715Z,0.80
2023-11-11T03:14:09.699Z,0.40
2023-11-11T03:16:40.721Z,0.50
2023-11-11T03:19:08.224Z,0.60
2023-11-11T03:21:35.407Z,0.65
2023-11-11T03:24:03.509Z,0.70
2023-11-11T03:26:30.289Z,0.70
2023-11-11T03:29:01.602Z,0.73
2023-11-11T03:31:30.649Z,0.70
2023-11-11T03:33:58.401Z,0.70
2023-11-11T03:36:25.215Z,0.68
2023-11-11T03:38:52.944Z,0.80
2023-11-11T03:41:21.904Z,0.68
2023-11-11T03:43:50.777Z,0.60
2023-11-11T03:46:18.209Z,0.68
2023-11-11T03:48:45.008Z,0.60
2023-11-11T03:51:11.780Z,0.90
2023-11-11T03:53:38.481Z,0.82
2023-11-11T03:56:11.540Z,0.68
2023-11-11T03:58:40.495Z,0.80
2023-11-11T04:01:12.079Z,0.80
2023-11-11T04:03:41.417Z,0.70
2023-11-11T04:06:10.623Z,0.80
2023-11-11T04:08:38.237Z,0.68
2023-11-11T04:11:08.509Z,1.20
2023-11-11T04:13:36.165Z,0.88
2023-11-11T04:16:05.891Z,0.95
2023-11-11T04:18:34.346Z,0.80
2023-11-11T04:21:01.997Z,0.77
2023-11-11T04:23:31.565Z,1.05
2023-11-11T04:25:59.376Z,1.10
2023-11-11T04:28:27.540Z,1.17
2023-11-11T04:30:56.661Z,0.80
2023-11-11T04:33:23.946Z,1.10
2023-11-11T04:35:52.925Z,1.00
2023-11-11T04:38:27.659Z,1.15
2023-11-11T04:40:56.525Z,1.17
2023-11-11T04:43:23.699Z,1.33
2023-11-11T04:45:51.031Z,1.50
2023-11-11T04:48:17.806Z,1.20
2023-11-11T04:50:44.513Z,1.15
2023-11-11T04:53:11.298Z,1.38
2023-11-11T04:55:37.989Z,1.60
2023-11-11T04:58:08.487Z,1.75
2023-11-11T05:00:36.089Z,1.65
2023-11-11T05:03:05.835Z,1.40
2023-11-11T05:05:34.913Z,1.90
2023-11-11T05:08:01.754Z,1.52
2023-11-11T05:10:29.296Z,1.85
2023-11-11T05:12:57.020Z,1.77
2023-11-11T05:15:25.427Z,1.80
2023-11-11T05:17:52.420Z,2.08
2023-11-11T05:20:22.172Z,1.75
2023-11-11T05:22:49.162Z,2.03
2023-11-11T05:25:19.098Z,2.20
2023-11-11T05:27:52.873Z,2.17
2023-11-11T05:32:46.553Z,2.03
2023-11-11T05:35:15.312Z,2.00
2023-11-11T05:37:43.668Z,2.15
2023-11-11T05:40:18.974Z,2.40
2023-11-11T05:42:50.324Z,2.20
2023-11-11T05:45:18.917Z,2.00
2023-11-11T05:47:46.177Z,1.55
2023-11-11T05:50:13.536Z,1.60
2023-11-11T05:52:42.630Z,1.55
2023-11-11T05:55:09.759Z,1.70
2023-11-11T05:57:40.484Z,1.73
2023-11-11T06:00:12.943Z,1.70
2023-11-11T06:02:42.668Z,1.85
2023-11-11T06:05:10.010Z,2.38
2023-11-11T06:07:36.872Z,2.08
2023-11-11T06:10:05.825Z,1.92
2023-11-11T06:12:33.219Z,1.83
2023-11-11T06:15:04.381Z,2.00
2023-11-11T06:17:33.511Z,2.13
2023-11-11T06:20:04.813Z,2.10
2023-11-11T06:22:33.682Z,2.45
2023-11-11T06:25:00.830Z,2.13
2023-11-11T06:27:27.554Z,2.22
2023-11-11T06:29:54.325Z,2.70
2023-11-11T06:32:21.013Z,2.13
2023-11-11T06:34:47.793Z,2.45
2023-11-11T06:37:16.808Z,2.10
2023-11-11T06:39:48.507Z,1.80
2023-11-11T06:42:17.501Z,1.88
2023-11-11T06:44:44.295Z,1.95
2023-11-11T06:47:10.962Z,2.40
2023-11-11T06:49:37.763Z,1.85
2023-11-11T06:52:07.025Z,2.30
2023-11-11T06:54:35.936Z,2.42
2023-11-11T06:57:02.767Z,2.15
2023-11-11T06:59:31.642Z,2.30
2023-11-11T07:02:00.496Z,2.30
2023-11-11T07:04:32.056Z,2.72
2023-11-11T07:07:00.120Z,3.50
2023-11-11T07:09:26.885Z,2.55
2023-11-11T07:11:53.684Z,2.90
2023-11-11T07:14:20.969Z,2.97
2023-11-11T07:16:47.828Z,2.90
2023-11-11T07:19:14.529Z,2.67
2023-11-11T07:21:41.841Z,2.88
2023-11-11T07:24:10.926Z,3.00
2023-11-11T07:26:37.663Z,2.65
2023-11-11T07:29:05.040Z,2.92
2023-11-11T07:31:33.672Z,2.65
2023-11-11T07:34:01.939Z,2.70
2023-11-11T07:36:29.631Z,4.18
2023-11-11T07:38:58.901Z,2.92
2023-11-11T07:41:27.015Z,2.72
2023-11-11T07:43:55.025Z,2.35
2023-11-11T07:46:21.935Z,2.38
2023-11-11T07:48:48.811Z,2.20
2023-11-11T07:51:15.930Z,2.45
2023-11-11T07:53:42.773Z,2.38
2023-11-11T07:56:11.514Z,2.55
2023-11-11T07:58:39.839Z,2.20
2023-11-11T08:01:11.882Z,2.20
2023-11-11T08:03:38.749Z,2.40
2023-11-11T08:06:07.084Z,2.35
2023-11-11T08:08:36.439Z,2.15
2023-11-11T08:11:06.304Z,2.50
2023-11-11T08:13:33.303Z,2.17
2023-11-11T08:16:00.661Z,1.92
2023-11-11T08:18:35.782Z,1.90
2023-11-11T08:21:11.749Z,2.00
2023-11-11T08:23:39.233Z,3.05
2023-11-11T08:26:06.930Z,1.95
2023-11-11T08:28:33.679Z,2.10
2023-11-11T08:31:03.871Z,1.90
2023-11-11T08:33:31.283Z,1.95
2023-11-11T08:35:58.041Z,1.80
2023-11-11T08:38:26.851Z,1.58
2023-11-11T08:40:53.639Z,4.53
2023-11-11T08:43:25.024Z,1.90
2023-11-11T08:45:53.935Z,1.60
2023-11-11T08:48:22.980Z,1.85
2023-11-11T08:50:50.050Z,2.20
2023-11-11T08:53:17.390Z,1.98
2023-11-11T08:55:44.311Z,1.80
2023-11-11T08:58:11.151Z,1.65
2023-11-11T09:00:41.724Z,1.90
2023-11-11T09:03:08.583Z,1.65
2023-11-11T09:05:35.399Z,2.10
2023-11-11T09:08:02.180Z,1.67
2023-11-11T09:10:29.185Z,1.77
2023-11-11T09:12:58.568Z,1.90
2023-11-11T09:15:25.492Z,1.92
2023-11-11T09:17:52.425Z,1.70
2023-11-11T09:20:19.595Z,1.70
2023-11-11T09:22:46.302Z,1.67
2023-11-11T09:25:13.117Z,1.42
2023-11-11T09:27:40.908Z,1.63
2023-11-11T09:30:10.529Z,1.50
2023-11-11T09:32:39.757Z,2.55
2023-11-11T09:35:08.127Z,1.50
2023-11-11T09:37:34.919Z,1.55
2023-11-11T09:40:07.715Z,1.45
2023-11-11T09:42:42.091Z,1.20
2023-11-11T09:47:45.941Z,1.48
2023-11-11T09:50:17.711Z,1.85
2023-11-11T09:52:46.076Z,1.90
2023-11-11T09:55:15.637Z,1.80
2023-11-11T09:57:46.938Z,1.90
2023-11-11T10:00:16.006Z,1.77
2023-11-11T10:02:46.530Z,1.60
2023-11-11T10:05:16.258Z,1.50
2023-11-11T10:07:43.351Z,1.77
2023-11-11T10:10:10.902Z,1.60
2023-11-11T10:12:40.648Z,1.63
2023-11-11T10:15:09.414Z,1.40
2023-11-11T10:17:40.641Z,1.63
2023-11-11T10:20:20.609Z,1.60
2023-11-11T10:22:49.325Z,1.40
2023-11-11T10:25:22.916Z,1.40
2023-11-11T10:27:56.698Z,1.50
2023-11-11T10:32:59.506Z,1.27
2023-11-11T10:35:26.603Z,1.20
2023-11-11T10:37:53.911Z,1.40
2023-11-11T10:40:21.671Z,1.20
2023-11-11T10:42:49.574Z,0.95
2023-11-11T10:45:17.540Z,1.17
2023-11-11T10:47:48.031Z,1.30
2023-11-11T10:50:15.416Z,1.30
2023-11-11T10:52:46.094Z,1.20
2023-11-11T10:55:13.896Z,1.10
2023-11-11T10:57:42.077Z,1.25
2023-11-11T11:00:30.714Z,0.93
2023-11-11T11:03:00.363Z,1.42
2023-11-11T11:05:58.654Z,1.30
2023-11-11T11:08:59.665Z,0.95
2023-11-11T11:11:47.482Z,1.20
2023-11-11T11:14:26.887Z,1.00
2023-11-11T11:16:53.633Z,1.23
2023-11-11T11:19:20.619Z,1.30
2023-11-11T11:21:52.390Z,1.45
2023-11-11T11:24:19.980Z,1.27
2023-11-11T11:26:49.127Z,1.38
2023-11-11T11:29:18.263Z,1.08
2023-11-11T11:32:08.638Z,1.30
2023-11-11T11:34:40.771Z,1.40
2023-11-11T11:37:13.608Z,1.42
2023-11-11T11:39:51.773Z,1.30
2023-11-11T11:42:23.504Z,1.60
2023-11-11T11:44:57.459Z,1.30
2023-11-11T11:47:30.970Z,1.38
2023-11-11T11:50:02.054Z,1.20
2023-11-11T11:52:28.802Z,0.90
2023-11-11T11:54:55.855Z,1.20
2023-11-11T11:57:26.256Z,1.63
2023-11-11T12:00:16.126Z,1.10
2023-11-11T12:02:43.775Z,1.17
2023-11-11T12:05:12.132Z,1.30
2023-11-11T12:07:39.438Z,1.27
2023-11-11T12:10:08.121Z,1.13
2023-11-11T12:12:35.306Z,1.25
2023-11-11T12:15:09.929Z,0.63
2023-11-11T12:17:36.917Z,0.80
2023-11-11T12:20:05.345Z,0.85
2023-11-11T12:22:34.709Z,0.80
2023-11-11T12:25:02.542Z,1.00
2023-11-11T12:27:29.426Z,0.70
2023-11-11T12:29:58.401Z,1.17
2023-11-11T12:32:25.153Z,0.77
2023-11-11T12:34:52.933Z,0.55
2023-11-11T12:37:23.434Z,0.70
2023-11-11T12:39:51.661Z,0.70
2023-11-11T12:42:29.202Z,0.82
2023-11-11T12:44:56.474Z,0.63
2023-11-11T12:47:23.338Z,0.70
2023-11-11T12:49:54.925Z,0.60
2023-11-11T12:52:24.972Z,0.80
2023-11-11T12:54:54.801Z,1.02
2023-11-11T12:57:26.465Z,0.80
2023-11-11T12:59:57.122Z,0.63
2023-11-11T13:02:26.337Z,0.73
2023-11-11T13:04:53.438Z,0.73
2023-11-11T13:07:22.105Z,1.60
2023-11-11T13:09:49.462Z,0.95
2023-11-11T13:12:18.102Z,0.88
2023-11-11T13:14:45.899Z,1.10
2023-11-11T13:17:13.500Z,1.13
2023-11-11T13:19:41.441Z,0.80
2023-11-11T13:22:10.316Z,0.85
2023-11-11T13:24:41.104Z,0.98
2023-11-11T13:27:08.827Z,0.90
2023-11-11T13:29:36.326Z,1.10
2023-11-11T13:32:03.256Z,0.68
2023-11-11T13:34:31.143Z,0.80
2023-11-11T13:36:59.695Z,1.00
2023-11-11T13:39:38.792Z,0.70
2023-11-11T13:42:11.160Z,0.98
2023-11-11T13:44:40.281Z,0.95
2023-11-11T13:47:08.604Z,1.00
2023-11-11T13:49:38.088Z,1.20
2023-11-11T13:52:05.528Z,0.98
2023-11-11T13:54:32.237Z,0.88
2023-11-11T13:57:02.028Z,1.00
2023-11-11T13:59:28.818Z,0.80
2023-11-11T14:01:55.722Z,0.70
2023-11-11T14:04:22.612Z,0.98
2023-11-11T14:06:54.629Z,0.90
2023-11-11T14:09:23.575Z,0.80
2023-11-11T14:11:50.393Z,1.00
2023-11-11T14:14:17.865Z,1.10
2023-11-11T14:16:46.866Z,0.95
2023-11-11T14:19:15.129Z,1.50
2023-11-11T14:21:44.400Z,1.30
2023-11-11T14:24:11.990Z,1.20
2023-11-11T14:26:44.951Z,1.13
2023-11-11T14:29:12.728Z,0.80
2023-11-11T14:31:39.746Z,1.00
2023-11-11T14:34:08.175Z,0.90
2023-11-11T14:36:38.685Z,0.90
2023-11-11T14:39:09.707Z,1.40
2023-11-11T14:41:39.334Z,1.00
2023-11-11T14:44:09.398Z,1.02
2023-11-11T14:46:38.132Z,1.00
2023-11-11T14:49:10.408Z,0.80
2023-11-11T14:51:39.723Z,0.85
2023-11-11T14:54:06.761Z,1.17
2023-11-11T14:56:37.156Z,0.80
2023-11-11T14:59:05.661Z,1.08
2023-11-11T15:01:32.667Z,0.90
2023-11-11T15:04:02.014Z,1.08
2023-11-11T15:06:32.627Z,0.60
2023-11-11T15:08:59.690Z,0.60
2023-11-11T15:11:26.627Z,0.80
2023-11-11T15:13:53.375Z,0.80
2023-11-11T15:16:20.164Z,0.75
2023-11-11T15:18:46.898Z,1.50
2023-11-11T15:21:13.761Z,1.20
2023-11-11T15:23:40.618Z,0.90
2023-11-11T15:26:07.476Z,0.80
2023-11-11T15:28:36.818Z,1.10
2023-11-11T15:31:05.296Z,0.80
2023-11-11T15:33:32.106Z,0.90
2023-11-11T15:35:58.953Z,0.80
2023-11-11T15:38:26.104Z,1.00
2023-11-11T15:40:53.076Z,1.20
2023-11-11T15:43:19.957Z,0.80
2023-11-11T15:45:46.971Z,0.80
2023-11-11T15:48:13.839Z,0.70
2023-11-11T15:50:41.848Z,0.60
2023-11-11T15:53:09.009Z,0.82
2023-11-11T15:55:36.243Z,0.80
2023-11-11T15:58:06.686Z,0.82
2023-11-11T16:00:35.763Z,0.77
2023-11-11T16:03:05.119Z,0.98
2023-11-11T16:05:32.007Z,0.93
2023-11-11T16:07:58.987Z,1.02
2023-11-11T16:10:26.540Z,1.20
2023-11-11T16:12:53.347Z,1.13
2023-11-11T16:15:20.392Z,1.05
2023-11-11T16:17:47.220Z,1.10
2023-11-11T16:20:15.653Z,0.98
2023-11-11T16:22:42.602Z,0.90
2023-11-11T16:25:11.807Z,1.13
2023-11-11T16:27:42.321Z,1.20
2023-11-11T16:30:10.774Z,0.82
2023-11-11T16:32:37.583Z,1.00
2023-11-11T16:35:09.733Z,1.00
2023-11-11T16:37:36.649Z,1.10
2023-11-11T16:40:11.260Z,0.90
2023-11-11T16:42:41.334Z,1.00
2023-11-11T16:45:09.797Z,1.30
2023-11-11T16:47:39.642Z,1.55
2023-11-11T16:50:10.310Z,1.50
2023-11-11T16:52:39.309Z,1.20
2023-11-11T16:55:11.686Z,0.95
2023-11-11T16:57:40.588Z,1.00
2023-11-11T17:00:10.161Z,1.15
2023-11-11T17:02:38.526Z,0.98
2023-11-11T17:05:07.859Z,0.90
2023-11-11T17:07:38.267Z,1.00
2023-11-11T17:10:07.083Z,0.98
2023-11-11T17:12:34.508Z,1.17
2023-11-11T17:15:03.223Z,1.20
2023-11-11T17:17:30.166Z,1.30
2023-11-11T17:19:58.044Z,1.27
2023-11-11T17:22:27.129Z,1.42
2023-11-11T17:24:53.853Z,1.25
2023-11-11T17:27:20.815Z,1.40
2023-11-11T17:29:47.624Z,1.30
2023-11-11T17:32:14.877Z,1.80
2023-11-11T17:34:41.756Z,2.35
2023-11-11T17:37:09.380Z,2.17
2023-11-11T17:39:36.201Z,2.03
2023-11-11T17:42:04.437Z,1.95
2023-11-11T17:44:31.280Z,1.80
2023-11-11T17:46:58.192Z,1.48
2023-11-11T17:49:25.026Z,1.55
2023-11-11T17:51:51.823Z,1.98
2023-11-11T17:54:18.541Z,1.70
2023-11-11T17:56:46.015Z,1.70
2023-11-11T17:59:12.904Z,1.90
2023-11-11T18:01:40.467Z,1.60
2023-11-11T18:04:10.273Z,1.85
2023-11-11T18:06:44.021Z,1.80
2023-11-11T18:09:14.576Z,2.05
2023-11-11T18:11:44.631Z,1.48
2023-11-11T18:14:11.877Z,1.90
2023-11-11T18:16:42.327Z,1.98
2023-11-11T18:19:09.749Z,1.80
2023-11-11T18:21:37.075Z,1.65
2023-11-11T18:24:04.104Z,1.77
2023-11-11T18:26:30.982Z,1.95
2023-11-11T18:28:58.034Z,1.67
2023-11-11T18:31:24.901Z,2.88
2023-11-11T18:33:53.013Z,2.55
2023-11-11T18:36:19.796Z,2.97
2023-11-11T18:38:46.561Z,2.45
2023-11-11T18:41:13.308Z,2.30
2023-11-11T18:43:40.086Z,2.67
2023-11-11T18:46:07.980Z,2.90
2023-11-11T18:48:36.070Z,3.45
2023-11-11T18:51:11.616Z,3.10
2023-11-11T18:53:38.966Z,3.10
2023-11-11T18:56:08.893Z,2.63
2023-11-11T18:58:35.750Z,2.42
2023-11-11T19:01:03.302Z,2.28
2023-11-11T19:03:30.057Z,2.70
2023-11-11T19:05:57.705Z,2.20
2023-11-11T19:08:24.438Z,2.33
2023-11-11T19:10:51.488Z,2.40
2023-11-11T19:13:18.336Z,2.25
2023-11-11T19:15:45.176Z,2.58
2023-11-11T19:18:13.010Z,1.63
2023-11-11T19:20:39.961Z,1.77
2023-11-11T19:23:09.573Z,2.28
2023-11-11T19:25:37.090Z,1.75
2023-11-11T19:28:09.755Z,3.50
2023-11-11T19:30:38.007Z,1.88
2023-11-11T19:33:05.371Z,2.35
2023-11-11T19:35:32.643Z,2.25
2023-11-11T19:37:59.754Z,2.78
2023-11-11T19:40:29.591Z,2.78
2023-11-11T19:42:56.448Z,2.35
2023-11-11T19:45:24.452Z,2.65
2023-11-11T19:47:58.441Z,2.58
2023-11-11T19:50:25.104Z,2.30
2023-11-11T19:52:51.865Z,2.85
2023-11-11T19:55:19.621Z,2.65
2023-11-11T19:57:46.733Z,2.90
2023-11-11T20:00:13.852Z,2.75
2023-11-11T20:02:41.328Z,2.80
2023-11-11T20:05:08.639Z,2.53
2023-11-11T20:07:37.014Z,2.88
2023-11-11T20:10:05.586Z,2.30
2023-11-11T20:12:32.978Z,2.25
2023-11-11T20:15:12.714Z,2.80
2023-11-11T20:17:40.302Z,2.42
2023-11-11T20:20:08.676Z,2.60
2023-11-11T20:22:36.856Z,2.80
2023-11-11T20:25:04.275Z,2.55
2023-11-11T20:27:36.588Z,2.40
2023-11-11T20:30:04.652Z,2.40
2023-11-11T20:32:31.831Z,2.65
2023-11-11T20:34:58.634Z,2.50
2023-11-11T20:37:25.384Z,2.60
2023-11-11T20:39:54.267Z,2.45
2023-11-11T20:42:21.019Z,2.65
2023-11-11T20:44:50.101Z,2.83
2023-11-11T20:47:21.581Z,2.78
2023-11-11T20:49:51.280Z,3.08
2023-11-11T20:52:18.383Z,3.08
2023-11-11T20:54:45.617Z,3.35
2023-11-11T20:57:12.479Z,3.63
2023-11-11T20:59:39.311Z,3.45
2023-11-11T21:02:08.718Z,3.70
2023-11-11T21:04:35.672Z,3.55
2023-11-11T21:07:02.519Z,4.07
2023-11-11T21:09:29.301Z,3.78
2023-11-11T21:11:56.082Z,3.60
2023-11-11T21:14:23.112Z,3.95
2023-11-11T21:16:50.415Z,4.53
2023-11-11T21:19:20.321Z,5.13
2023-11-11T21:21:47.096Z,4.90
2023-11-11T21:24:17.417Z,4.50
2023-11-11T21:26:49.148Z,4.90
2023-11-11T21:29:16.433Z,4.13
2023-11-11T21:31:43.276Z,4.07
2023-11-11T21:34:10.262Z,4.53
2023-11-11T21:36:39.954Z,4.40
2023-11-11T21:39:08.296Z,4.68
2023-11-11T21:41:35.004Z,4.38
2023-11-11T21:44:01.927Z,4.05
2023-11-11T21:46:28.725Z,4.60
2023-11-11T21:48:55.483Z,4.80
2023-11-11T21:51:22.340Z,4.63
2023-11-11T21:53:49.291Z,4.28
2023-11-11T21:56:16.033Z,4.25
2023-11-11T21:58:44.962Z,4.97
2023-11-11T22:01:11.826Z,4.93
2023-11-11T22:03:40.909Z,4.45
2023-11-11T22:06:08.153Z,3.85
2023-11-11T22:08:34.950Z,4.50
2023-11-11T22:11:10.996Z,4.00
2023-11-11T22:13:40.811Z,4.28
2023-11-11T22:16:08.684Z,4.30
2023-11-11T22:18:36.161Z,4.25
2023-11-11T22:21:04.536Z,3.95
2023-11-11T22:23:33.628Z,4.20
2023-11-11T22:26:03.062Z,4.00
2023-11-11T22:28:33.699Z,4.30
2023-11-11T22:31:00.979Z,4.60
2023-11-11T22:33:27.810Z,4.53
2023-11-11T22:35:56.735Z,4.07
2023-11-11T22:38:23.798Z,4.30
2023-11-11T22:40:52.799Z,4.18
2023-11-11T22:43:19.536Z,4.35
2023-11-11T22:45:46.372Z,4.95
2023-11-11T22:48:13.640Z,5.40
2023-11-11T22:50:40.411Z,5.45
2023-11-11T22:53:09.633Z,5.13
2023-11-11T22:55:38.459Z,5.18
2023-11-11T22:58:07.078Z,5.10
2023-11-11T23:00:34.144Z,5.30
2023-11-11T23:03:12.589Z,5.45
2023-11-11T23:05:40.648Z,5.50
2023-11-11T23:08:08.178Z,5.05
2023-11-11T23:10:37.827Z,5.57
2023-11-11T23:13:04.766Z,5.43
2023-11-11T23:15:32.141Z,6.30
2023-11-11T23:17:59.838Z,6.22
2023-11-11T23:20:26.726Z,6.15
2023-11-11T23:22:59.706Z,6.18
2023-11-11T23:25:26.578Z,6.10
2023-11-11T23:27:55.728Z,5.60
2023-11-11T23:30:25.565Z,5.65
2023-11-11T23:32:54.750Z,6.50
2023-11-11T23:35:21.788Z,6.13
2023-11-11T23:37:49.010Z,5.88
2023-11-11T23:40:16.021Z,5.82
2023-11-11T23:42:45.143Z,6.88
2023-11-11T23:45:12.181Z,6.10
2023-11-11T23:47:39.264Z,6.50
2023-11-11T23:50:10.500Z,5.88
2023-11-11T23:52:37.677Z,6.45
2023-11-11T23:55:05.342Z,6.28
2023-11-11T23:57:34.565Z,6.60
